createdAt,value
2022-10-05T00:01:55.270Z,102345.72
2022-10-05T00:04:30.484Z,102343.13
2022-10-05T00:07:25.349Z,102351.50
2022-10-05T00:09:57.654Z,102347.91
2022-10-05T00:12:25.360Z,102344.47
2022-10-05T00:14:53.976Z,102346.44
2022-10-05T00:17:25.879Z,102349.28
2022-10-05T00:19:54.901Z,102347.53
2022-10-05T00:22:31.560Z,102346.59
2022-10-05T00:24:59.974Z,102347.44
2022-10-05T00:27:33.141Z,102348.41
2022-10-05T00:30:02.643Z,102345.84
2022-10-05T00:32:29.487Z,102350.63
2022-10-05T00:34:58.496Z,102352.59
2022-10-05T00:37:25.105Z,102347.28
2022-10-05T00:39:51.790Z,102351.09
2022-10-05T00:42:24.025Z,102342.25
2022-10-05T00:45:10.316Z,102352.09
2022-10-05T00:48:15.563Z,102347.66
2022-10-05T00:51:04.387Z,102342.13
2022-10-05T00:53:53.314Z,102345.69
2022-10-05T00:57:00.223Z,102346.69
2022-10-05T00:59:47.915Z,102340.53
2022-10-05T01:02:40.737Z,102335.13
2022-10-05T01:05:13.427Z,102345.94
2022-10-05T01:07:52.014Z,102345.94
2022-10-05T01:10:42.698Z,102336.00
2022-10-05T01:13:33.263Z,102336.00
2022-10-05T01:16:10.084Z,102331.44
2022-10-05T01:18:58.067Z,102330.69
2022-10-05T01:21:27.189Z,102325.28
2022-10-05T01:24:12.079Z,102327.25
2022-10-05T01:26:45.598Z,102324.81
2022-10-05T01:29:28.965Z,102328.47
2022-10-05T01:31:55.718Z,102328.25
2022-10-05T01:34:41.042Z,102325.53
2022-10-05T01:37:35.942Z,102328.34
2022-10-05T01:40:05.796Z,102318.50
2022-10-05T01:43:03.973Z,102312.34
2022-10-05T01:46:07.481Z,102323.31
2022-10-05T01:48:52.714Z,102325.13
2022-10-05T01:51:38.025Z,102323.31
2022-10-05T01:54:28.845Z,102321.59
2022-10-05T01:57:19.254Z,102319.34
2022-10-05T02:00:34.635Z,102319.50
2022-10-05T02:03:41.877Z,102314.94
2022-10-05T02:06:24.872Z,102311.13
2022-10-05T02:09:07.977Z,102310.16
2022-10-05T02:11:35.170Z,102305.63
2022-10-05T02:14:12.509Z,102308.44
2022-10-05T02:16:43.880Z,102304.13
2022-10-05T02:19:26.777Z,102305.00
2022-10-05T02:22:04.442Z,102312.34
2022-10-05T02:24:43.032Z,102312.72
2022-10-05T02:27:11.940Z,102311.97
2022-10-05T02:29:43.079Z,102311.97
2022-10-05T02:32:21.612Z,102309.28
2022-10-05T02:34:48.353Z,102312.94
2022-10-05T02:37:41.203Z,102313.94
2022-10-05T02:40:07.761Z,102316.75
2022-10-05T02:42:40.502Z,102318.50
2022-10-05T02:45:22.413Z,102318.50
2022-10-05T02:47:57.712Z,102313.19
2022-10-05T02:51:03.690Z,102315.06
2022-10-05T02:53:59.344Z,102324.97
2022-10-05T02:56:47.661Z,102321.56
2022-10-05T02:59:24.296Z,102315.53
2022-10-05T03:01:54.552Z,102320.19
2022-10-05T03:04:43.087Z,102320.28
2022-10-05T03:07:27.978Z,102319.44
2022-10-05T03:10:06.789Z,102320.66
2022-10-05T03:12:53.043Z,102319.91
2022-10-05T03:16:00.625Z,102318.91
2022-10-05T03:18:30.759Z,102313.66
2022-10-05T03:21:16.999Z,102315.38
2022-10-05T03:24:02.439Z,102312.56
2022-10-05T03:26:53.272Z,102316.97
2022-10-05T03:29:25.971Z,102308.00
2022-10-05T03:32:30.319Z,102314.41
2022-10-05T03:35:01.054Z,102311.91
2022-10-05T03:37:46.149Z,102316.38
2022-10-05T03:40:46.633Z,102311.06
2022-10-05T03:43:41.200Z,102315.72
2022-10-05T03:46:24.541Z,102322.09
2022-10-05T03:49:26.124Z,102314.88
2022-10-05T03:52:01.656Z,102327.66
2022-10-05T03:54:37.073Z,102319.75
2022-10-05T03:57:13.329Z,102320.50
2022-10-05T04:00:05.376Z,102316.69
2022-10-05T04:02:36.204Z,102318.53
2022-10-05T04:05:15.943Z,102319.53
2022-10-05T04:07:50.860Z,102320.38
2022-10-05T04:10:44.300Z,102315.97
2022-10-05T04:13:21.879Z,102315.09
2022-10-05T04:15:56.366Z,102319.75
2022-10-05T04:18:40.634Z,102322.34
2022-10-05T04:21:23.539Z,102318.78
2022-10-05T04:23:55.767Z,102324.19
2022-10-05T04:26:29.799Z,102324.38
2022-10-05T04:29:05.748Z,102318.91
2022-10-05T04:31:55.235Z,102319.88
2022-10-05T04:34:44.899Z,102319.34
2022-10-05T04:37:35.909Z,102315.03
2022-10-05T04:40:31.732Z,102320.34
2022-10-05T04:43:04.481Z,102314.19
2022-10-05T04:45:58.768Z,102324.09
2022-10-05T04:48:41.315Z,102327.69
2022-10-05T04:51:31.057Z,102331.25
2022-10-05T04:54:04.228Z,102337.63
2022-10-05T04:56:33.148Z,102333.19
2022-10-05T04:59:18.169Z,102335.78
2022-10-05T05:02:31.196Z,102335.78
2022-10-05T05:05:27.552Z,102338.59
2022-10-05T05:08:45.132Z,102334.06
2022-10-05T05:11:24.607Z,102337.75
2022-10-05T05:14:12.084Z,102331.47
2022-10-05T05:16:43.808Z,102339.47
2022-10-05T05:19:33.934Z,102333.19
2022-10-05T05:22:04.500Z,102339.72
2022-10-05T05:24:42.283Z,102340.03
2022-10-05T05:27:15.494Z,102344.72
2022-10-05T05:30:20.592Z,102351.81
2022-10-05T05:33:03.302Z,102351.94
2022-10-05T05:35:46.084Z,102347.28
2022-10-05T05:38:57.849Z,102349.78
2022-10-05T05:41:53.991Z,102356.66
2022-10-05T05:44:24.939Z,102359.38
2022-10-05T05:47:29.817Z,102365.50
2022-10-05T05:50:22.930Z,102366.38
2022-10-05T05:52:53.702Z,102371.66
2022-10-05T05:55:34.085Z,102382.13
2022-10-05T05:58:04.411Z,102378.25
2022-10-05T06:00:39.862Z,102377.88
2022-10-05T06:03:31.853Z,102382.94
2022-10-05T06:05:59.498Z,102387.22
2022-10-05T06:08:58.276Z,102382.47
2022-10-05T06:11:39.029Z,102379.13
2022-10-05T06:14:16.412Z,102381.81
2022-10-05T06:16:57.378Z,102388.63
2022-10-05T06:19:25.810Z,102388.25
2022-10-05T06:22:03.510Z,102397.00
2022-10-05T06:24:39.075Z,102390.28
2022-10-05T06:27:21.741Z,102398.13
2022-10-05T06:30:06.710Z,102400.63
2022-10-05T06:32:35.270Z,102400.47
2022-10-05T06:35:11.322Z,102399.88
2022-10-05T06:37:55.731Z,102409.13
2022-10-05T06:41:01.249Z,102412.09
2022-10-05T06:43:54.073Z,102412.34
2022-10-05T06:46:32.583Z,102418.03
2022-10-05T06:49:12.611Z,102421.97
2022-10-05T06:52:08.951Z,102421.59
2022-10-05T06:55:14.019Z,102418.41
2022-10-05T06:57:51.596Z,102419.69
2022-10-05T07:00:44.754Z,102418.09
2022-10-05T07:03:27.441Z,102419.31
2022-10-05T07:06:19.393Z,102420.03
2022-10-05T07:08:54.857Z,102414.41
2022-10-05T07:11:37.146Z,102427.19
2022-10-05T07:14:23.222Z,102432.84
2022-10-05T07:17:08.859Z,102432.34
2022-10-05T07:19:48.123Z,102433.44
2022-10-05T07:22:52.766Z,102434.41
2022-10-05T07:25:35.184Z,102428.09
2022-10-05T07:28:08.315Z,102430.91
2022-10-05T07:30:57.929Z,102441.84
2022-10-05T07:33:29.673Z,102449.22
2022-10-05T07:36:31.945Z,102451.31
2022-10-05T07:39:04.073Z,102452.38
2022-10-05T07:41:50.592Z,102452.59
2022-10-05T07:44:22.787Z,102460.78
2022-10-05T07:47:10.235Z,102461.59
2022-10-05T07:50:19.629Z,102463.50
2022-10-05T07:53:10.465Z,102452.63
2022-10-05T07:58:51.987Z,102461.34
2022-10-05T08:01:25.116Z,102467.69
2022-10-05T08:04:35.997Z,102470.72
2022-10-05T08:07:21.227Z,102470.91
2022-10-05T08:10:17.187Z,102479.22
2022-10-05T08:13:29.439Z,102477.16
2022-10-05T08:16:12.672Z,102480.75
2022-10-05T08:19:33.859Z,102474.09
2022-10-05T08:22:49.639Z,102486.31
2022-10-05T08:26:16.828Z,102482.94
2022-10-05T08:29:48.143Z,102485.91
2022-10-05T08:32:41.787Z,102485.81
2022-10-05T08:35:27.947Z,102482.94
2022-10-05T08:37:57.238Z,102488.38
2022-10-05T08:40:53.338Z,102490.44
2022-10-05T08:44:18.241Z,102494.72
2022-10-05T08:47:15.233Z,102495.88
2022-10-05T08:49:57.059Z,102499.44
2022-10-05T08:52:33.231Z,102503.13
2022-10-05T08:55:31.554Z,102501.31
2022-10-05T08:59:23.334Z,102502.16
2022-10-05T09:02:14.602Z,102509.88
2022-10-05T09:05:20.815Z,102509.03
2022-10-05T09:12:16.587Z,102508.75
2022-10-05T09:15:42.570Z,102516.78
2022-10-05T09:18:59.313Z,102518.47
2022-10-05T09:22:17.807Z,102519.59
2022-10-05T09:25:22.394Z,102527.50
2022-10-05T09:28:24.605Z,102526.06
2022-10-05T09:31:53.091Z,102526.91
2022-10-05T09:34:55.990Z,102518.75
2022-10-05T09:38:15.893Z,102520.63
2022-10-05T09:41:24.450Z,102521.78
2022-10-05T09:44:21.273Z,102520.03
2022-10-05T09:47:06.148Z,102513.59
2022-10-05T09:50:14.116Z,102517.59
2022-10-05T09:53:05.097Z,102521.47
2022-10-05T09:56:06.306Z,102517.44
2022-10-05T09:59:03.475Z,102516.28
2022-10-05T10:02:07.968Z,102515.84
2022-10-05T10:05:31.593Z,102516.41
2022-10-05T10:09:02.023Z,102518.81
2022-10-05T10:11:34.515Z,102517.13
2022-10-05T10:14:49.764Z,102514.84
2022-10-05T10:17:46.295Z,102511.25
2022-10-05T10:20:50.184Z,102506.94
2022-10-05T10:23:45.741Z,102509.06
2022-10-05T10:26:55.651Z,102511.19
2022-10-05T10:29:45.935Z,102509.03
2022-10-05T10:32:34.714Z,102508.16
2022-10-05T10:35:33.333Z,102510.63
2022-10-05T10:38:50.452Z,102518.78
2022-10-05T10:41:26.182Z,102513.94
2022-10-05T10:44:36.003Z,102511.50
2022-10-05T10:47:17.562Z,102515.50
2022-10-05T10:50:46.642Z,102520.03
2022-10-05T10:53:31.687Z,102512.88
2022-10-05T10:56:43.334Z,102514.28
2022-10-05T10:59:54.230Z,102511.84
2022-10-05T11:02:32.925Z,102510.06
2022-10-05T11:05:23.515Z,102507.59
2022-10-05T11:08:07.026Z,102501.28
2022-10-05T11:11:02.780Z,102509.59
2022-10-05T11:14:05.780Z,102508.16
2022-10-05T11:16:58.733Z,102507.22
2022-10-05T11:20:04.565Z,102496.72
2022-10-05T11:23:23.890Z,102491.56
2022-10-05T11:26:27.330Z,102496.31
2022-10-05T11:29:34.860Z,102487.53
2022-10-05T11:32:38.006Z,102486.91
2022-10-05T11:35:37.771Z,102488.47
2022-10-05T11:39:07.640Z,102489.88
2022-10-05T11:42:05.958Z,102495.31
2022-10-05T11:45:06.271Z,102486.69
2022-10-05T11:47:40.644Z,102485.53
2022-10-05T11:50:56.818Z,102484.66
2022-10-05T11:53:32.843Z,102480.59
2022-10-05T11:59:12.366Z,102480.94
2022-10-05T12:01:42.317Z,102475.47
2022-10-05T12:04:20.708Z,102472.75
2022-10-05T12:06:50.703Z,102475.47
2022-10-05T12:10:04.988Z,102466.25
2022-10-05T12:12:38.604Z,102464.22
2022-10-05T12:15:43.679Z,102469.69
2022-10-05T12:18:16.829Z,102467.28
2022-10-05T12:20:57.527Z,102461.97
2022-10-05T12:23:37.920Z,102466.59
2022-10-05T12:26:08.138Z,102464.00
2022-10-05T12:28:55.802Z,102462.13
2022-10-05T12:31:48.581Z,102456.66
2022-10-05T12:34:43.443Z,102463.16
2022-10-05T12:37:28.967Z,102468.06
2022-10-05T12:40:08.679Z,102468.38
2022-10-05T12:42:46.753Z,102464.06
2022-10-05T12:45:49.282Z,102463.22
2022-10-05T12:48:28.301Z,102465.09
2022-10-05T12:51:05.391Z,102466.78
2022-10-05T12:53:48.682Z,102466.66
2022-10-05T12:56:49.133Z,102470.06
2022-10-05T12:59:42.859Z,102462.38
2022-10-05T13:02:51.445Z,102458.22
2022-10-05T13:05:35.928Z,102469.28
2022-10-05T13:08:25.573Z,102465.72
2022-10-05T13:11:15.324Z,102464.00
2022-10-05T13:14:07.664Z,102466.72
2022-10-05T13:16:46.001Z,102460.25
2022-10-05T13:19:12.826Z,102455.81
2022-10-05T13:21:52.430Z,102461.28
2022-10-05T13:24:42.135Z,102456.81
2022-10-05T13:27:25.388Z,102460.56
2022-10-05T13:30:04.411Z,102465.94
2022-10-05T13:32:50.146Z,102462.50
2022-10-05T13:35:29.054Z,102462.50
2022-10-05T13:38:26.628Z,102460.47
2022-10-05T13:41:19.416Z,102457.75
2022-10-05T13:44:29.157Z,102454.16
2022-10-05T13:47:02.339Z,102463.22
2022-10-05T13:49:50.046Z,102459.06
2022-10-05T13:52:19.869Z,102460.22
2022-10-05T13:55:25.991Z,102455.06
2022-10-05T13:58:16.201Z,102455.06
2022-10-05T14:01:03.657Z,102460.53
2022-10-05T14:03:35.977Z,102455.94
2022-10-05T14:06:17.357Z,102456.63
2022-10-05T14:08:49.600Z,102451.31
2022-10-05T14:11:27.417Z,102450.31
2022-10-05T14:14:04.760Z,102454.75
2022-10-05T14:16:33.740Z,102449.16
2022-10-05T14:19:06.406Z,102446.56
2022-10-05T14:21:44.254Z,102451.19
2022-10-05T14:24:47.542Z,102449.31
2022-10-05T14:27:23.012Z,102444.72
2022-10-05T14:29:58.066Z,102448.44
2022-10-05T14:32:27.306Z,102444.03
2022-10-05T14:35:20.036Z,102443.47
2022-10-05T14:37:50.426Z,102437.91
2022-10-05T14:40:36.887Z,102435.66
2022-10-05T14:43:15.818Z,102440.84
2022-10-05T14:45:58.614Z,102436.72
2022-10-05T14:48:29.647Z,102436.31
2022-10-05T14:51:03.444Z,102436.59
2022-10-05T14:53:46.152Z,102433.44
2022-10-05T14:56:50.347Z,102435.78
2022-10-05T14:59:47.371Z,102438.94
2022-10-05T15:02:32.077Z,102438.38
2022-10-05T15:05:02.200Z,102436.69
2022-10-05T15:07:36.142Z,102438.69
2022-10-05T15:10:33.783Z,102423.78
2022-10-05T15:13:15.640Z,102428.72
2022-10-05T15:15:52.035Z,102434.78
2022-10-05T15:18:32.161Z,102433.63
2022-10-05T15:21:23.939Z,102425.34
2022-10-05T15:23:57.508Z,102413.31
2022-10-05T15:26:27.021Z,102411.59
2022-10-05T15:29:05.553Z,102422.78
2022-10-05T15:31:39.269Z,102421.63
2022-10-05T15:34:20.238Z,102417.91
2022-10-05T15:36:53.547Z,102421.91
2022-10-05T15:39:27.096Z,102422.34
2022-10-05T15:42:09.056Z,102427.09
2022-10-05T15:45:32.661Z,102425.38
2022-10-05T15:48:03.080Z,102430.97
2022-10-05T15:50:32.422Z,102430.09
2022-10-05T15:53:12.023Z,102434.97
2022-10-05T15:55:52.625Z,102438.84
2022-10-05T15:58:48.376Z,102439.69
2022-10-05T16:01:31.879Z,102444.56
2022-10-05T16:04:07.675Z,102433.13
2022-10-05T16:06:55.788Z,102436.97
2022-10-05T16:09:37.348Z,102436.41
2022-10-05T16:12:14.331Z,102432.13
2022-10-05T16:15:06.582Z,102431.69
2022-10-05T16:17:52.663Z,102437.41
2022-10-05T16:20:32.730Z,102438.41
2022-10-05T16:23:12.083Z,102439.41
2022-10-05T16:25:40.063Z,102441.56
2022-10-05T16:28:38.522Z,102444.25
2022-10-05T16:31:10.873Z,102440.97
2022-10-05T16:33:47.077Z,102441.97
2022-10-05T16:36:48.693Z,102442.97
2022-10-05T16:39:53.227Z,102444.13
2022-10-05T16:42:56.108Z,102452.41
2022-10-05T16:45:46.779Z,102448.81
2022-10-05T16:48:41.237Z,102456.84
2022-10-05T16:52:36.295Z,102460.00
2022-10-05T16:55:29.916Z,102471.28
2022-10-05T16:58:00.232Z,102463.41
2022-10-05T17:01:06.305Z,102463.53
2022-10-05T17:03:51.666Z,102465.50
2022-10-05T17:06:51.715Z,102467.38
2022-10-05T17:13:35.450Z,102478.53
2022-10-05T17:16:49.974Z,102474.81
2022-10-05T17:20:05.142Z,102475.81
2022-10-05T17:26:09.562Z,102475.09
2022-10-05T17:29:16.285Z,102466.22
2022-10-05T17:32:02.809Z,102472.63
2022-10-05T17:34:34.463Z,102479.94
2022-10-05T17:37:23.409Z,102475.66
2022-10-05T17:39:57.084Z,102485.38
2022-10-05T17:42:26.746Z,102486.22
2022-10-05T17:45:02.999Z,102479.81
2022-10-05T17:47:58.776Z,102482.53
2022-10-05T17:51:03.113Z,102490.81
2022-10-05T17:54:03.570Z,102482.78
2022-10-05T17:56:32.218Z,102488.34
2022-10-05T17:59:02.944Z,102489.38
2022-10-05T18:01:37.049Z,102490.50
2022-10-05T18:04:38.239Z,102498.78
2022-10-05T18:07:15.624Z,102492.75
2022-10-05T18:09:57.955Z,102499.22
2022-10-05T18:12:28.360Z,102493.06
2022-10-05T18:15:01.388Z,102499.47
2022-10-05T18:18:25.517Z,102496.19
2022-10-05T18:21:15.579Z,102501.88
2022-10-05T18:23:50.240Z,102506.59
2022-10-05T18:26:50.555Z,102492.28
2022-10-05T18:29:54.773Z,102498.97
2022-10-05T18:32:39.380Z,102503.81
2022-10-05T18:35:44.691Z,102510.38
2022-10-05T18:38:47.412Z,102511.81
2022-10-05T18:44:31.793Z,102512.34
2022-10-05T18:47:11.173Z,102513.59
2022-10-05T18:49:54.633Z,102516.56
2022-10-05T18:55:56.339Z,102528.25
2022-10-05T18:58:32.336Z,102532.22
2022-10-05T19:01:05.813Z,102534.94
2022-10-05T19:04:00.528Z,102535.16
2022-10-05T19:06:52.681Z,102531.88
2022-10-05T19:10:01.779Z,102530.25
2022-10-05T19:13:00.654Z,102530.78
2022-10-05T19:15:38.545Z,102528.44
2022-10-05T19:18:14.363Z,102536.75
2022-10-05T19:20:58.913Z,102536.13
2022-10-05T19:23:51.246Z,102538.97
2022-10-05T19:26:43.889Z,102535.53
2022-10-05T19:29:30.458Z,102546.78
2022-10-05T19:32:03.359Z,102547.06
2022-10-05T19:34:59.004Z,102543.84
2022-10-05T19:37:54.199Z,102536.09
2022-10-05T19:40:33.807Z,102538.19
2022-10-05T19:43:36.556Z,102550.06
2022-10-05T19:46:14.119Z,102546.75
2022-10-05T19:48:55.599Z,102552.44
2022-10-05T19:51:29.613Z,102550.81
2022-10-05T19:54:00.842Z,102547.38
2022-10-05T19:56:33.526Z,102551.94
2022-10-05T19:59:18.664Z,102558.47
2022-10-05T20:01:51.119Z,102563.06
2022-10-05T20:04:41.094Z,102567.75
2022-10-05T20:07:14.040Z,102571.53
2022-10-05T20:10:38.970Z,102567.50
2022-10-05T20:13:36.656Z,102568.75
2022-10-05T20:16:35.121Z,102575.28
2022-10-05T20:19:22.979Z,102577.38
2022-10-05T20:22:00.438Z,102575.81
2022-10-05T20:24:41.768Z,102577.63
2022-10-05T20:27:34.047Z,102569.63
2022-10-05T20:30:02.560Z,102572.59
2022-10-05T20:32:33.483Z,102579.97
2022-10-05T20:35:00.426Z,102575.56
2022-10-05T20:37:28.598Z,102576.69
2022-10-05T20:40:02.487Z,102582.97
2022-10-05T20:42:35.508Z,102573.97
2022-10-05T20:45:06.995Z,102569.53
2022-10-05T20:47:33.852Z,102577.66
2022-10-05T20:50:01.471Z,102582.19
2022-10-05T20:52:34.206Z,102581.22
2022-10-05T20:55:01.795Z,102578.72
2022-10-05T20:57:28.559Z,102579.84
2022-10-05T20:59:55.373Z,102580.81
2022-10-05T21:02:21.972Z,102580.34
2022-10-05T21:04:49.216Z,102575.16
2022-10-05T21:07:26.259Z,102582.31
2022-10-05T21:09:53.846Z,102578.13
2022-10-05T21:12:20.387Z,102577.38
2022-10-05T21:14:47.456Z,102579.25
2022-10-05T21:17:14.203Z,102584.66
2022-10-05T21:19:40.743Z,102582.81
2022-10-05T21:22:08.813Z,102582.66
2022-10-05T21:24:39.088Z,102581.81
2022-10-05T21:27:06.022Z,102579.94
2022-10-05T21:29:34.219Z,102581.81
2022-10-05T21:32:01.043Z,102583.66
2022-10-05T21:34:29.253Z,102587.22
2022-10-05T21:36:55.825Z,102581.81
2022-10-05T21:39:22.471Z,102577.25
2022-10-05T21:41:49.861Z,102576.38
2022-10-05T21:44:16.734Z,102580.09
2022-10-05T21:46:43.312Z,102576.38
2022-10-05T21:49:10.364Z,102581.56
2022-10-05T21:51:37.716Z,102576.75
2022-10-05T21:54:10.722Z,102582.06
2022-10-05T21:56:39.459Z,102586.50
2022-10-05T21:59:08.206Z,102585.38
2022-10-05T22:01:36.039Z,102582.56
2022-10-05T22:04:06.341Z,102583.31
2022-10-05T22:06:33.584Z,102588.38
2022-10-05T22:09:00.222Z,102582.81
2022-10-05T22:11:28.024Z,102578.13
2022-10-05T22:14:01.658Z,102580.97
2022-10-05T22:16:33.080Z,102578.13
2022-10-05T22:19:02.799Z,102582.47
2022-10-05T22:21:32.181Z,102583.31
2022-10-05T22:24:01.664Z,102575.06
2022-10-05T22:26:28.271Z,102576.03
2022-10-05T22:28:57.701Z,102573.31
2022-10-05T22:31:24.594Z,102577.03
2022-10-05T22:33:51.489Z,102574.44
2022-10-05T22:36:18.317Z,102577.16
2022-10-05T22:38:46.568Z,102569.03
2022-10-05T22:41:13.841Z,102570.72
2022-10-05T22:43:40.717Z,102569.88
2022-10-05T22:46:11.462Z,102567.03
2022-10-05T22:48:38.631Z,102572.47
2022-10-05T22:51:05.590Z,102558.06
2022-10-05T22:53:32.210Z,102566.03
2022-10-05T22:56:04.517Z,102557.06
2022-10-05T22:58:31.178Z,102550.03
2022-10-05T23:01:09.322Z,102546.47
2022-10-05T23:03:36.320Z,102549.31
2022-10-05T23:06:06.656Z,102543.03
2022-10-05T23:08:34.374Z,102546.88
2022-10-05T23:11:02.453Z,102543.25
2022-10-05T23:13:29.341Z,102544.34
2022-10-05T23:15:56.429Z,102540.91
2022-10-05T23:18:23.089Z,102544.72
2022-10-05T23:20:54.209Z,102532.31
2022-10-05T23:23:21.309Z,102538.69
2022-10-05T23:25:47.820Z,102536.84
2022-10-05T23:28:14.368Z,102532.41
2022-10-05T23:30:41.136Z,102536.97
2022-10-05T23:33:07.817Z,102533.28
2022-10-05T23:35:34.322Z,102533.28
2022-10-05T23:38:01.157Z,102543.38
2022-10-05T23:40:27.733Z,102538.34
2022-10-05T23:42:54.244Z,102539.44
2022-10-05T23:45:20.765Z,102536.97
2022-10-05T23:47:47.297Z,102546.22
2022-10-05T23:50:13.812Z,102546.59
2022-10-05T23:52:40.372Z,102547.72
2022-10-05T23:55:07.310Z,102545.97
2022-10-05T23:57:33.968Z,102546.97
